createdAt,value
2023-05-07T00:00:33.692Z,23.82
2023-05-07T00:01:33.805Z,23.81
2023-05-07T00:02:33.834Z,23.82
2023-05-07T00:03:33.918Z,23.83
2023-05-07T00:04:33.914Z,23.80
2023-05-07T00:05:33.970Z,23.80
2023-05-07T00:06:33.982Z,23.79
2023-05-07T00:07:34.045Z,23.80
2023-05-07T00:08:34.113Z,23.79
2023-05-07T00:09:34.193Z,23.79
2023-05-07T00:10:34.234Z,23.79
2023-05-07T00:11:35.133Z,23.79
2023-05-07T00:12:34.439Z,23.78
2023-05-07T00:13:34.291Z,23.79
2023-05-07T00:14:34.321Z,23.79
2023-05-07T00:15:34.315Z,23.79
2023-05-07T00:16:34.429Z,23.81
2023-05-07T00:17:34.440Z,23.79
2023-05-07T00:18:34.367Z,23.80
2023-05-07T00:19:34.363Z,23.81
2023-05-07T00:20:36.099Z,23.82
2023-05-07T00:21:34.385Z,23.79
2023-05-07T00:22:34.394Z,23.80
2023-05-07T00:23:34.568Z,23.80
2023-05-07T00:24:34.422Z,23.80
2023-05-07T00:25:34.449Z,23.78
2023-05-07T00:26:34.444Z,23.79
2023-05-07T00:27:34.428Z,23.78
2023-05-07T00:28:34.448Z,23.78
2023-05-07T00:29:34.461Z,23.81
2023-05-07T00:30:34.473Z,23.80
2023-05-07T00:31:34.532Z,23.77
2023-05-07T00:32:34.515Z,23.78
2023-05-07T00:33:34.540Z,23.78
2023-05-07T00:34:34.510Z,23.76
2023-05-07T00:35:34.567Z,23.79
2023-05-07T00:36:34.624Z,23.79
2023-05-07T00:37:34.661Z,23.79
2023-05-07T00:38:34.698Z,23.78
2023-05-07T00:39:34.743Z,23.78
2023-05-07T00:40:34.897Z,23.79
2023-05-07T00:41:34.851Z,23.78
2023-05-07T00:42:34.878Z,23.77
2023-05-07T00:43:34.915Z,23.78
2023-05-07T00:44:34.991Z,23.78
2023-05-07T00:45:35.049Z,23.78
2023-05-07T00:46:35.237Z,23.78
2023-05-07T00:47:35.191Z,23.79
2023-05-07T00:48:35.172Z,23.78
2023-05-07T00:49:35.362Z,23.79
2023-05-07T00:50:35.283Z,23.77
2023-05-07T00:51:35.331Z,23.77
2023-05-07T00:52:35.364Z,23.78
2023-05-07T00:53:35.373Z,23.77
2023-05-07T00:54:35.376Z,23.76
2023-05-07T00:55:35.477Z,23.77
2023-05-07T00:56:35.458Z,23.76
2023-05-07T00:57:35.497Z,23.77
2023-05-07T00:58:35.552Z,23.77
2023-05-07T00:59:35.591Z,23.77
2023-05-07T01:00:35.643Z,23.76
2023-05-07T01:01:35.799Z,23.76
2023-05-07T01:02:35.902Z,23.76
2023-05-07T01:03:35.806Z,23.76
2023-05-07T01:04:35.927Z,23.74
2023-05-07T01:05:35.925Z,23.73
2023-05-07T01:06:36.029Z,23.74
2023-05-07T01:07:36.117Z,23.75
2023-05-07T01:08:36.177Z,23.74
2023-05-07T01:09:36.207Z,23.74
2023-05-07T01:10:36.251Z,23.73
2023-05-07T01:11:36.307Z,23.74
2023-05-07T01:12:36.427Z,23.75
2023-05-07T01:13:36.403Z,23.74
2023-05-07T01:14:36.442Z,23.73
2023-05-07T01:15:36.476Z,23.74
2023-05-07T01:16:36.555Z,23.73
2023-05-07T01:17:36.590Z,23.74
2023-05-07T01:18:36.629Z,23.73
2023-05-07T01:19:36.667Z,23.73
2023-05-07T01:20:36.707Z,23.74
2023-05-07T01:21:36.764Z,23.71
2023-05-07T01:22:36.802Z,23.72
2023-05-07T01:23:36.844Z,23.72
2023-05-07T01:24:36.913Z,23.73
2023-05-07T01:25:36.958Z,23.73
2023-05-07T01:26:37.006Z,23.73
2023-05-07T01:27:37.081Z,23.74
2023-05-07T01:28:37.153Z,23.73
2023-05-07T01:29:37.220Z,23.72
2023-05-07T01:30:37.281Z,23.73
2023-05-07T01:31:37.456Z,23.73
2023-05-07T01:32:37.503Z,23.74
2023-05-07T01:33:37.537Z,23.73
2023-05-07T01:34:37.617Z,23.72
2023-05-07T01:35:37.686Z,23.74
2023-05-07T01:36:37.712Z,23.74
2023-05-07T01:37:37.845Z,23.74
2023-05-07T01:38:37.844Z,23.73
2023-05-07T01:39:37.869Z,23.73
2023-05-07T01:40:37.909Z,23.73
2023-05-07T01:41:37.982Z,23.74
2023-05-07T01:42:38.010Z,23.74
2023-05-07T01:43:38.023Z,23.74
2023-05-07T01:44:38.101Z,23.73
2023-05-07T01:45:38.135Z,23.74
2023-05-07T01:46:38.261Z,23.73
2023-05-07T01:47:38.322Z,23.72
2023-05-07T01:48:38.328Z,23.72
2023-05-07T01:49:38.380Z,23.73
2023-05-07T01:50:38.424Z,23.73
2023-05-07T01:51:38.515Z,23.72
2023-05-07T01:52:38.635Z,23.71
2023-05-07T01:53:38.701Z,23.70
2023-05-07T01:54:38.715Z,23.71
2023-05-07T01:55:38.776Z,23.71
2023-05-07T01:56:38.837Z,23.72
2023-05-07T01:57:38.921Z,23.73
2023-05-07T01:58:38.932Z,23.72
2023-05-07T01:59:39.028Z,23.72
2023-05-07T02:00:39.077Z,23.71
2023-05-07T02:01:39.203Z,23.72
2023-05-07T02:02:39.382Z,23.71
2023-05-07T02:03:39.371Z,23.72
2023-05-07T02:04:39.317Z,23.71
2023-05-07T02:05:39.323Z,23.72
2023-05-07T02:06:39.381Z,23.72
2023-05-07T02:07:39.448Z,23.72
2023-05-07T02:08:39.519Z,23.72
2023-05-07T02:09:39.552Z,23.72
2023-05-07T02:10:39.597Z,23.69
2023-05-07T02:11:39.653Z,23.70
2023-05-07T02:12:39.750Z,23.71
2023-05-07T02:13:39.708Z,23.72
2023-05-07T02:14:39.748Z,23.71
2023-05-07T02:15:39.749Z,23.71
2023-05-07T02:16:39.793Z,23.69
2023-05-07T02:17:39.909Z,23.71
2023-05-07T02:18:39.869Z,23.71
2023-05-07T02:19:39.928Z,23.71
2023-05-07T02:20:39.968Z,23.70
2023-05-07T02:21:39.993Z,23.68
2023-05-07T02:22:39.997Z,23.70
2023-05-07T02:23:40.036Z,23.69
2023-05-07T02:24:40.061Z,23.70
2023-05-07T02:25:40.102Z,23.70
2023-05-07T02:26:40.130Z,23.70
2023-05-07T02:27:40.186Z,23.71
2023-05-07T02:28:40.246Z,23.70
2023-05-07T02:29:40.255Z,23.69
2023-05-07T02:30:40.270Z,23.69
2023-05-07T02:31:40.284Z,23.70
2023-05-07T02:32:40.334Z,23.71
2023-05-07T02:33:40.365Z,23.71
2023-05-07T02:34:40.345Z,23.70
2023-05-07T02:35:40.409Z,23.69
2023-05-07T02:36:40.359Z,23.69
2023-05-07T02:37:40.398Z,23.71
2023-05-07T02:38:40.470Z,23.69
2023-05-07T02:39:40.425Z,23.69
2023-05-07T02:40:40.470Z,23.71
2023-05-07T02:41:40.577Z,23.69
2023-05-07T02:42:40.582Z,23.69
2023-05-07T02:43:40.584Z,23.68
2023-05-07T02:44:40.616Z,23.69
2023-05-07T02:45:40.633Z,23.68
2023-05-07T02:46:40.638Z,23.68
2023-05-07T02:47:40.668Z,23.68
2023-05-07T02:48:40.658Z,23.68
2023-05-07T02:49:40.672Z,23.69
2023-05-07T02:50:40.701Z,23.70
2023-05-07T02:51:40.692Z,23.70
2023-05-07T02:52:40.714Z,23.69
2023-05-07T02:53:40.736Z,23.70
2023-05-07T02:54:40.771Z,23.68
2023-05-07T02:55:40.766Z,23.69
2023-05-07T02:56:40.817Z,23.69
2023-05-07T02:57:40.941Z,23.68
2023-05-07T02:58:40.968Z,23.68
2023-05-07T02:59:40.955Z,23.69
2023-05-07T03:00:40.965Z,23.68
2023-05-07T03:01:41.040Z,23.68
2023-05-07T03:02:41.123Z,23.69
2023-05-07T03:03:41.176Z,23.68
2023-05-07T03:04:41.188Z,23.67
2023-05-07T03:05:41.230Z,23.66
2023-05-07T03:06:41.265Z,23.68
2023-05-07T03:07:41.401Z,23.69
2023-05-07T03:08:41.419Z,23.68
2023-05-07T03:09:41.446Z,23.68
2023-05-07T03:10:41.505Z,23.68
2023-05-07T03:11:41.572Z,23.68
2023-05-07T03:12:41.611Z,23.67
2023-05-07T03:13:41.663Z,23.68
2023-05-07T03:14:41.650Z,23.68
2023-05-07T03:15:41.722Z,23.68
2023-05-07T03:16:41.722Z,23.68
2023-05-07T03:17:41.853Z,23.68
2023-05-07T03:18:41.897Z,23.67
2023-05-07T03:19:41.791Z,23.66
2023-05-07T03:20:41.885Z,23.66
2023-05-07T03:21:41.862Z,23.65
2023-05-07T03:22:41.871Z,23.67
2023-05-07T03:23:41.857Z,23.68
2023-05-07T03:24:41.907Z,23.66
2023-05-07T03:25:41.920Z,23.66
2023-05-07T03:26:41.937Z,23.66
2023-05-07T03:27:41.947Z,23.65
2023-05-07T03:28:42.002Z,23.65
2023-05-07T03:29:42.081Z,23.66
2023-05-07T03:30:42.042Z,23.67
2023-05-07T03:31:42.117Z,23.65
2023-05-07T03:32:42.134Z,23.67
2023-05-07T03:33:42.091Z,23.66
2023-05-07T03:34:42.126Z,23.67
2023-05-07T03:35:42.118Z,23.67
2023-05-07T03:36:42.157Z,23.67
2023-05-07T03:37:42.195Z,23.65
2023-05-07T03:38:42.203Z,23.66
2023-05-07T03:39:42.237Z,23.67
2023-05-07T03:40:42.269Z,23.66
2023-05-07T03:41:42.277Z,23.66
2023-05-07T03:42:42.313Z,23.66
2023-05-07T03:43:42.308Z,23.65
2023-05-07T03:44:42.343Z,23.66
2023-05-07T03:45:42.376Z,23.67
2023-05-07T03:46:42.442Z,23.65
2023-05-07T03:47:42.486Z,23.66
2023-05-07T03:48:42.453Z,23.66
2023-05-07T03:49:42.492Z,23.65
2023-05-07T03:50:42.525Z,23.66
2023-05-07T03:51:42.500Z,23.66
2023-05-07T03:52:42.555Z,23.66
2023-05-07T03:53:42.566Z,23.65
2023-05-07T03:54:42.569Z,23.64
2023-05-07T03:55:42.604Z,23.65
2023-05-07T03:56:42.602Z,23.65
2023-05-07T03:57:42.614Z,23.65
2023-05-07T03:58:42.665Z,23.65
2023-05-07T03:59:42.634Z,23.65
2023-05-07T04:00:42.679Z,23.65
2023-05-07T04:01:42.926Z,23.65
2023-05-07T04:02:42.914Z,23.64
2023-05-07T04:03:42.801Z,23.64
2023-05-07T04:04:42.768Z,23.65
2023-05-07T04:05:42.788Z,23.64
2023-05-07T04:06:42.770Z,23.64
2023-05-07T04:07:42.798Z,23.65
2023-05-07T04:08:42.812Z,23.65
2023-05-07T04:09:42.812Z,23.65
2023-05-07T04:10:42.843Z,23.65
2023-05-07T04:11:42.857Z,23.64
2023-05-07T04:12:42.922Z,23.64
2023-05-07T04:13:42.876Z,23.64
2023-05-07T04:14:42.913Z,23.64
2023-05-07T04:15:42.893Z,23.64
2023-05-07T04:16:42.937Z,23.64
2023-05-07T04:17:43.053Z,23.63
2023-05-07T04:18:42.917Z,23.63
2023-05-07T04:19:42.910Z,23.63
2023-05-07T04:20:42.916Z,23.63
2023-05-07T04:21:42.917Z,23.64
2023-05-07T04:22:42.931Z,23.64
2023-05-07T04:23:42.923Z,23.64
2023-05-07T04:24:42.937Z,23.64
2023-05-07T04:25:42.925Z,23.64
2023-05-07T04:26:42.967Z,23.64
2023-05-07T04:27:42.954Z,23.65
2023-05-07T04:28:42.965Z,23.64
2023-05-07T04:29:42.958Z,23.64
2023-05-07T04:30:42.950Z,23.65
2023-05-07T04:31:43.006Z,23.64
2023-05-07T04:32:43.063Z,23.65
2023-05-07T04:33:42.977Z,23.66
2023-05-07T04:34:42.983Z,23.64
2023-05-07T04:35:42.987Z,23.65
2023-05-07T04:36:43.004Z,23.64
2023-05-07T04:37:43.023Z,23.65
2023-05-07T04:38:43.002Z,23.64
2023-05-07T04:39:43.027Z,23.65
2023-05-07T04:40:43.021Z,23.64
2023-05-07T04:41:43.046Z,23.65
2023-05-07T04:42:43.039Z,23.64
2023-05-07T04:43:43.037Z,23.65
2023-05-07T04:44:43.058Z,23.65
2023-05-07T04:45:43.057Z,23.64
2023-05-07T04:46:43.049Z,23.62
2023-05-07T04:47:43.101Z,23.63
2023-05-07T04:48:43.065Z,23.65
2023-05-07T04:49:43.163Z,23.66
2023-05-07T04:50:43.089Z,23.66
2023-05-07T04:51:43.088Z,23.65
2023-05-07T04:52:43.112Z,23.63
2023-05-07T04:53:43.123Z,23.65
2023-05-07T04:54:43.128Z,23.64
2023-05-07T04:55:43.140Z,23.64
2023-05-07T04:56:43.141Z,23.65
2023-05-07T04:57:43.190Z,23.65
2023-05-07T04:58:43.166Z,23.65
2023-05-07T04:59:43.177Z,23.66
2023-05-07T05:00:43.182Z,23.65
2023-05-07T05:01:43.272Z,23.65
2023-05-07T05:02:43.320Z,23.66
2023-05-07T05:03:43.271Z,23.65
2023-05-07T05:04:43.272Z,23.64
2023-05-07T05:05:43.398Z,23.63
2023-05-07T05:06:43.295Z,23.64
2023-05-07T05:07:43.324Z,23.65
2023-05-07T05:08:43.335Z,23.65
2023-05-07T05:09:43.376Z,23.67
2023-05-07T05:10:43.403Z,23.66
2023-05-07T05:11:43.419Z,23.66
2023-05-07T05:12:43.476Z,23.67
2023-05-07T05:13:43.475Z,23.67
2023-05-07T05:14:43.533Z,23.67
2023-05-07T05:15:43.610Z,23.67
2023-05-07T05:16:43.639Z,23.68
2023-05-07T05:17:43.709Z,23.68
2023-05-07T05:18:43.738Z,23.68
2023-05-07T05:19:43.743Z,23.68
2023-05-07T05:20:43.801Z,23.69
2023-05-07T05:21:43.861Z,23.67
2023-05-07T05:22:43.926Z,23.68
2023-05-07T05:23:43.982Z,23.67
2023-05-07T05:24:44.047Z,23.69
2023-05-07T05:25:44.110Z,23.68
2023-05-07T05:26:44.147Z,23.68
2023-05-07T05:27:44.239Z,23.68
2023-05-07T05:28:44.311Z,23.68
2023-05-07T05:29:44.353Z,23.68
2023-05-07T05:30:44.408Z,23.68
2023-05-07T05:31:44.471Z,23.69
2023-05-07T05:32:44.483Z,23.69
2023-05-07T05:33:44.463Z,23.68
2023-05-07T05:34:44.476Z,23.70
2023-05-07T05:35:44.485Z,23.69
2023-05-07T05:36:44.507Z,23.70
2023-05-07T05:37:44.528Z,23.70
2023-05-07T05:38:44.545Z,23.69
2023-05-07T05:39:44.552Z,23.70
2023-05-07T05:40:44.574Z,23.71
2023-05-07T05:41:44.635Z,23.71
2023-05-07T05:42:44.692Z,23.71
2023-05-07T05:43:44.752Z,23.71
2023-05-07T05:44:44.814Z,23.69
2023-05-07T05:45:44.865Z,23.70
2023-05-07T05:46:45.061Z,23.70
2023-05-07T05:47:45.250Z,23.70
2023-05-07T05:48:44.938Z,23.71
2023-05-07T05:49:44.957Z,23.72
2023-05-07T05:50:44.999Z,23.72
2023-05-07T05:51:45.036Z,23.72
2023-05-07T05:52:45.140Z,23.72
2023-05-07T05:53:45.191Z,23.72
2023-05-07T05:54:45.278Z,23.73
2023-05-07T05:55:45.252Z,23.73
2023-05-07T05:56:45.291Z,23.74
2023-05-07T05:57:45.349Z,23.73
2023-05-07T05:58:45.434Z,23.73
2023-05-07T05:59:45.500Z,23.74
2023-05-07T06:00:45.554Z,23.73
2023-05-07T06:01:45.741Z,23.72
2023-05-07T06:02:45.777Z,23.72
2023-05-07T06:03:45.714Z,23.73
2023-05-07T06:04:45.793Z,23.72
2023-05-07T06:05:45.771Z,23.73
2023-05-07T06:06:45.778Z,23.74
2023-05-07T06:07:45.814Z,23.74
2023-05-07T06:08:45.839Z,23.74
2023-05-07T06:09:45.914Z,23.75
2023-05-07T06:10:45.860Z,23.75
2023-05-07T06:11:45.902Z,23.75
2023-05-07T06:12:46.033Z,23.75
2023-05-07T06:13:46.009Z,23.74
2023-05-07T06:14:46.070Z,23.75
2023-05-07T06:15:46.136Z,23.75
2023-05-07T06:16:46.239Z,23.74
2023-05-07T06:17:46.816Z,23.73
2023-05-07T06:18:46.440Z,23.75
2023-05-07T06:19:46.448Z,23.75
2023-05-07T06:20:46.532Z,23.75
2023-05-07T06:21:46.564Z,23.75
2023-05-07T06:22:46.689Z,23.75
2023-05-07T06:23:46.655Z,23.75
2023-05-07T06:24:46.729Z,23.76
2023-05-07T06:25:46.797Z,23.75
2023-05-07T06:26:46.861Z,23.77
2023-05-07T06:27:46.931Z,23.77
2023-05-07T06:28:46.968Z,23.78
2023-05-07T06:29:47.023Z,23.77
2023-05-07T06:30:47.059Z,23.77
2023-05-07T06:31:47.110Z,23.77
2023-05-07T06:32:47.162Z,23.78
2023-05-07T06:33:47.163Z,23.77
2023-05-07T06:34:47.212Z,23.77
2023-05-07T06:35:47.286Z,23.78
2023-05-07T06:36:47.325Z,23.79
2023-05-07T06:37:47.371Z,23.79
2023-05-07T06:38:47.437Z,23.80
2023-05-07T06:39:47.492Z,23.79
2023-05-07T06:40:47.576Z,23.80
2023-05-07T06:41:47.711Z,23.81
2023-05-07T06:42:47.696Z,23.80
2023-05-07T06:43:47.746Z,23.80
2023-05-07T06:44:47.781Z,23.80
2023-05-07T06:45:47.891Z,23.81
2023-05-07T06:46:47.956Z,23.81
2023-05-07T06:47:48.050Z,23.80
2023-05-07T06:48:47.972Z,23.81
2023-05-07T06:49:47.979Z,23.80
2023-05-07T06:50:48.073Z,23.82
2023-05-07T06:51:48.024Z,23.81
2023-05-07T06:52:48.032Z,23.81
2023-05-07T06:53:48.082Z,23.82
2023-05-07T06:54:48.062Z,23.83
2023-05-07T06:55:48.124Z,23.86
2023-05-07T06:56:48.268Z,23.84
2023-05-07T06:57:48.293Z,23.83
2023-05-07T06:58:48.377Z,23.85
2023-05-07T06:59:48.440Z,23.83
2023-05-07T07:00:48.517Z,23.85
2023-05-07T07:01:48.606Z,23.86
2023-05-07T07:02:48.665Z,23.85
2023-05-07T07:03:48.747Z,23.86
2023-05-07T07:04:48.836Z,23.86
2023-05-07T07:05:48.868Z,23.85
2023-05-07T07:06:48.955Z,23.85
2023-05-07T07:07:49.010Z,23.87
2023-05-07T07:08:49.113Z,23.87
2023-05-07T07:09:49.193Z,23.89
2023-05-07T07:10:49.233Z,23.90
2023-05-07T07:11:49.216Z,23.88
2023-05-07T07:12:49.281Z,23.89
2023-05-07T07:13:49.406Z,23.89
2023-05-07T07:14:49.271Z,23.90
2023-05-07T07:15:49.303Z,23.92
2023-05-07T07:16:49.292Z,23.92
2023-05-07T07:17:49.326Z,23.92
2023-05-07T07:18:49.312Z,23.94
2023-05-07T07:19:49.329Z,23.95
2023-05-07T07:20:49.330Z,23.96
2023-05-07T07:21:49.375Z,23.98
2023-05-07T07:22:49.375Z,23.99
2023-05-07T07:23:49.364Z,23.98
2023-05-07T07:24:49.463Z,23.98
2023-05-07T07:25:49.536Z,23.99
2023-05-07T07:26:49.616Z,23.99
2023-05-07T07:27:49.692Z,24.01
2023-05-07T07:28:49.803Z,24.02
2023-05-07T07:29:49.850Z,24.03
2023-05-07T07:30:50.008Z,24.04
2023-05-07T07:31:50.120Z,24.05
2023-05-07T07:32:50.125Z,24.07
2023-05-07T07:33:52.343Z,24.08
2023-05-07T07:34:50.165Z,24.08
2023-05-07T07:35:50.173Z,24.09
2023-05-07T07:36:50.176Z,24.09
2023-05-07T07:37:50.210Z,24.10
2023-05-07T07:38:50.205Z,24.11
2023-05-07T07:39:50.238Z,24.13
2023-05-07T07:40:50.233Z,24.13
2023-05-07T07:41:50.249Z,24.13
2023-05-07T07:42:50.276Z,24.14
2023-05-07T07:43:50.284Z,24.15
2023-05-07T07:44:50.282Z,24.15
2023-05-07T07:45:50.376Z,24.15
2023-05-07T07:46:50.357Z,24.15
2023-05-07T07:47:50.368Z,24.15
2023-05-07T07:48:50.338Z,24.15
2023-05-07T07:49:50.358Z,24.15
2023-05-07T07:50:50.370Z,24.17
2023-05-07T07:51:50.366Z,24.17
2023-05-07T07:52:50.412Z,24.17
2023-05-07T07:53:50.423Z,24.18
2023-05-07T07:54:50.448Z,24.19
2023-05-07T07:55:50.419Z,24.19
2023-05-07T07:56:50.416Z,24.19
2023-05-07T07:57:50.817Z,24.22
2023-05-07T07:58:50.426Z,24.22
2023-05-07T07:59:50.444Z,24.22
2023-05-07T08:00:50.456Z,24.23
2023-05-07T08:01:51.448Z,24.21
2023-05-07T08:02:50.646Z,24.22
2023-05-07T08:03:50.552Z,24.22
2023-05-07T08:04:50.589Z,24.23
2023-05-07T08:05:50.657Z,24.24
2023-05-07T08:06:50.714Z,24.24
2023-05-07T08:07:50.799Z,24.25
2023-05-07T08:08:50.855Z,24.26
2023-05-07T08:09:50.907Z,24.26
2023-05-07T08:10:51.009Z,24.28
2023-05-07T08:11:51.069Z,24.28
2023-05-07T08:12:51.174Z,24.29
2023-05-07T08:13:51.203Z,24.30
2023-05-07T08:14:51.228Z,24.30
2023-05-07T08:15:51.316Z,24.30
2023-05-07T08:16:51.408Z,24.30
2023-05-07T08:17:51.636Z,24.31
2023-05-07T08:18:51.505Z,24.31
2023-05-07T08:19:51.558Z,24.32
2023-05-07T08:20:51.608Z,24.33
2023-05-07T08:21:51.728Z,24.34
2023-05-07T08:22:51.763Z,24.36
2023-05-07T08:23:51.813Z,24.36
2023-05-07T08:24:51.874Z,24.37
2023-05-07T08:25:51.940Z,24.37
2023-05-07T08:26:51.974Z,24.38
2023-05-07T08:27:52.084Z,24.39
2023-05-07T08:28:52.141Z,24.39
2023-05-07T08:29:52.147Z,24.40
2023-05-07T08:30:52.247Z,24.39
2023-05-07T08:31:52.262Z,24.40
2023-05-07T08:32:52.362Z,24.42
2023-05-07T08:33:52.366Z,24.42
2023-05-07T08:34:52.435Z,24.43
2023-05-07T08:35:52.487Z,24.44
2023-05-07T08:36:52.579Z,24.43
2023-05-07T08:37:52.586Z,24.44
2023-05-07T08:38:52.654Z,24.44
2023-05-07T08:39:52.709Z,24.45
2023-05-07T08:40:52.744Z,24.45
2023-05-07T08:41:52.777Z,24.46
2023-05-07T08:42:52.826Z,24.47
2023-05-07T08:43:52.920Z,24.47
2023-05-07T08:44:52.936Z,24.48
2023-05-07T08:45:53.048Z,24.48
2023-05-07T08:46:53.141Z,24.50
2023-05-07T08:47:53.184Z,24.51
2023-05-07T08:48:53.172Z,24.52
2023-05-07T08:49:53.230Z,24.53
2023-05-07T08:50:53.247Z,24.53
2023-05-07T08:51:53.257Z,24.54
2023-05-07T08:52:53.325Z,24.54
2023-05-07T08:53:53.379Z,24.54
2023-05-07T08:54:53.398Z,24.55
2023-05-07T08:55:53.423Z,24.55
2023-05-07T08:56:53.484Z,24.56
2023-05-07T08:57:53.518Z,24.57
2023-05-07T08:58:53.558Z,24.59
2023-05-07T08:59:53.616Z,24.58
2023-05-07T09:00:53.638Z,24.59
2023-05-07T09:01:53.780Z,24.62
2023-05-07T09:02:53.769Z,24.62
2023-05-07T09:03:53.795Z,24.63
2023-05-07T09:04:53.799Z,24.63
2023-05-07T09:05:53.832Z,24.63
2023-05-07T09:06:53.869Z,24.64
2023-05-07T09:07:54.694Z,24.64
2023-05-07T09:08:53.954Z,24.66
2023-05-07T09:09:53.992Z,24.66
2023-05-07T09:10:53.993Z,24.66
2023-05-07T09:11:53.989Z,24.66
2023-05-07T09:12:54.014Z,24.68
2023-05-07T09:13:54.000Z,24.68
2023-05-07T09:14:54.009Z,24.69
2023-05-07T09:15:54.056Z,24.70
2023-05-07T09:16:53.996Z,24.71
2023-05-07T09:17:54.025Z,24.71
2023-05-07T09:18:53.999Z,24.73
2023-05-07T09:19:54.025Z,24.75
2023-05-07T09:20:54.034Z,24.76
2023-05-07T09:21:54.037Z,24.77
2023-05-07T09:22:54.057Z,24.77
2023-05-07T09:23:54.075Z,24.78
2023-05-07T09:24:54.078Z,24.79
2023-05-07T09:25:54.109Z,24.79
2023-05-07T09:26:54.113Z,24.80
2023-05-07T09:27:54.147Z,24.80
2023-05-07T09:28:54.206Z,24.81
2023-05-07T09:29:54.165Z,24.81
2023-05-07T09:30:54.187Z,24.82
2023-05-07T09:31:54.246Z,24.82
2023-05-07T09:32:54.288Z,24.83
2023-05-07T09:33:54.261Z,24.84
2023-05-07T09:34:54.280Z,24.83
2023-05-07T09:35:54.338Z,24.84
2023-05-07T09:36:54.361Z,24.84
2023-05-07T09:37:54.581Z,24.85
2023-05-07T09:38:54.427Z,24.85
2023-05-07T09:39:54.443Z,24.86
2023-05-07T09:40:54.475Z,24.87
2023-05-07T09:41:54.479Z,24.88
2023-05-07T09:42:54.507Z,24.88
2023-05-07T09:43:54.545Z,24.88
2023-05-07T09:44:54.554Z,24.89
2023-05-07T09:45:54.578Z,24.90
2023-05-07T09:46:54.644Z,24.91
2023-05-07T09:47:54.619Z,24.91
2023-05-07T09:48:54.601Z,24.92
2023-05-07T09:49:54.649Z,24.92
2023-05-07T09:50:54.618Z,24.93
2023-05-07T09:51:54.648Z,24.94
2023-05-07T09:52:54.699Z,24.96
2023-05-07T09:53:54.670Z,24.96
2023-05-07T09:54:54.678Z,24.96
2023-05-07T09:55:54.700Z,24.97
2023-05-07T09:56:54.711Z,24.98
2023-05-07T09:57:54.739Z,24.98
2023-05-07T09:58:54.776Z,24.98
2023-05-07T09:59:54.793Z,24.99
2023-05-07T10:00:54.832Z,25.01
2023-05-07T10:01:54.819Z,25.02
2023-05-07T10:02:54.889Z,25.02
2023-05-07T10:03:55.063Z,25.03
2023-05-07T10:04:54.915Z,25.05
2023-05-07T10:05:54.898Z,25.05
2023-05-07T10:06:54.911Z,25.05
2023-05-07T10:07:54.939Z,25.05
2023-05-07T10:08:54.938Z,25.05
2023-05-07T10:09:55.045Z,25.05
2023-05-07T10:10:54.973Z,25.06
2023-05-07T10:11:54.963Z,25.07
2023-05-07T10:12:55.052Z,25.08
2023-05-07T10:13:55.021Z,25.09
2023-05-07T10:14:55.042Z,25.09
2023-05-07T10:15:55.046Z,25.10
2023-05-07T10:16:55.046Z,25.10
2023-05-07T10:17:55.123Z,25.11
2023-05-07T10:18:55.141Z,25.11
2023-05-07T10:19:55.141Z,25.12
2023-05-07T10:20:55.156Z,25.14
2023-05-07T10:21:55.154Z,25.14
2023-05-07T10:22:55.192Z,25.14
2023-05-07T10:23:55.258Z,25.14
2023-05-07T10:24:55.260Z,25.13
2023-05-07T10:26:00.611Z,25.15
2023-05-07T10:26:56.273Z,25.14
2023-05-07T10:27:55.305Z,25.14
2023-05-07T10:28:55.394Z,25.14
2023-05-07T10:29:55.294Z,25.15
2023-05-07T10:30:55.353Z,25.15
2023-05-07T10:31:55.305Z,25.15
2023-05-07T10:32:55.334Z,25.15
2023-05-07T10:33:55.323Z,25.15
2023-05-07T10:34:55.334Z,25.15
2023-05-07T10:35:55.354Z,25.16
2023-05-07T10:36:55.341Z,25.16
2023-05-07T10:37:55.356Z,25.17
2023-05-07T10:38:55.345Z,25.16
2023-05-07T10:39:55.346Z,25.16
2023-05-07T10:40:55.337Z,25.16
2023-05-07T10:41:55.399Z,25.16
2023-05-07T10:42:55.368Z,25.16
2023-05-07T10:43:55.361Z,25.17
2023-05-07T10:44:55.370Z,25.17
2023-05-07T10:45:55.376Z,25.18
2023-05-07T10:46:55.363Z,25.18
2023-05-07T10:47:55.440Z,25.18
2023-05-07T10:48:55.396Z,25.18
2023-05-07T10:49:55.374Z,25.17
2023-05-07T10:50:55.396Z,25.17
2023-05-07T10:51:55.412Z,25.18
2023-05-07T10:52:55.410Z,25.18
2023-05-07T10:53:55.403Z,25.18
2023-05-07T10:54:55.425Z,25.18
2023-05-07T10:55:55.410Z,25.18
2023-05-07T10:56:55.405Z,25.17
2023-05-07T10:57:55.445Z,25.17
2023-05-07T10:58:55.417Z,25.17
2023-05-07T10:59:56.361Z,25.16
2023-05-07T11:00:55.419Z,25.16
2023-05-07T11:01:55.559Z,25.17
2023-05-07T11:02:55.514Z,25.17
2023-05-07T11:03:55.435Z,25.18
2023-05-07T11:04:55.472Z,25.18
2023-05-07T11:05:55.451Z,25.17
2023-05-07T11:06:55.461Z,25.16
2023-05-07T11:07:55.458Z,25.17
2023-05-07T11:08:55.453Z,25.17
2023-05-07T11:09:55.464Z,25.17
2023-05-07T11:10:55.463Z,25.18
2023-05-07T11:11:55.471Z,25.19
2023-05-07T11:12:55.561Z,25.19
2023-05-07T11:13:55.501Z,25.20
2023-05-07T11:14:55.566Z,25.21
2023-05-07T11:15:55.677Z,25.20
2023-05-07T11:16:55.581Z,25.20
2023-05-07T11:17:55.631Z,25.21
2023-05-07T11:18:55.613Z,25.21
2023-05-07T11:19:55.627Z,25.22
2023-05-07T11:20:55.636Z,25.24
2023-05-07T11:21:55.615Z,25.25
2023-05-07T11:22:56.592Z,25.26
2023-05-07T11:23:55.611Z,25.26
2023-05-07T11:24:55.612Z,25.27
2023-05-07T11:25:55.595Z,25.27
2023-05-07T11:26:55.592Z,25.27
2023-05-07T11:27:55.605Z,25.27
2023-05-07T11:28:55.604Z,25.26
2023-05-07T11:29:55.652Z,25.26
2023-05-07T11:30:55.589Z,25.25
2023-05-07T11:31:55.634Z,25.25
2023-05-07T11:32:55.691Z,25.25
2023-05-07T11:33:55.584Z,25.24
2023-05-07T11:34:55.591Z,25.24
2023-05-07T11:35:55.583Z,25.25
2023-05-07T11:36:55.582Z,25.25
2023-05-07T11:37:55.581Z,25.24
2023-05-07T11:38:55.623Z,25.24
2023-05-07T11:39:55.578Z,25.23
2023-05-07T11:40:55.562Z,25.24
2023-05-07T11:41:55.564Z,25.23
2023-05-07T11:42:55.551Z,25.24
2023-05-07T11:43:55.560Z,25.24
2023-05-07T11:44:55.581Z,25.23
2023-05-07T11:45:55.638Z,25.23
2023-05-07T11:46:55.579Z,25.23
2023-05-07T11:47:55.657Z,25.23
2023-05-07T11:48:55.554Z,25.23
2023-05-07T11:49:55.566Z,25.22
2023-05-07T11:50:55.560Z,25.22
2023-05-07T11:51:55.543Z,25.23
2023-05-07T11:52:55.525Z,25.23
2023-05-07T11:53:55.544Z,25.22
2023-05-07T11:54:55.528Z,25.23
2023-05-07T11:55:55.524Z,25.23
2023-05-07T11:56:55.510Z,25.24
2023-05-07T11:57:55.523Z,25.25
2023-05-07T11:58:55.487Z,25.26
2023-05-07T11:59:55.491Z,25.27
2023-05-07T12:00:55.522Z,25.29
2023-05-07T12:01:55.552Z,25.29
2023-05-07T12:02:55.634Z,25.31
2023-05-07T12:03:55.571Z,25.31
2023-05-07T12:04:55.613Z,25.31
2023-05-07T12:05:55.530Z,25.32
2023-05-07T12:06:55.533Z,25.32
2023-05-07T12:07:55.536Z,25.31
2023-05-07T12:08:55.531Z,25.31
2023-05-07T12:09:55.568Z,25.32
2023-05-07T12:10:55.541Z,25.31
2023-05-07T12:11:55.546Z,25.31
2023-05-07T12:12:55.568Z,25.31
2023-05-07T12:13:59.013Z,25.30
2023-05-07T12:14:55.531Z,25.30
2023-05-07T12:15:55.516Z,25.30
2023-05-07T12:16:55.584Z,25.29
2023-05-07T12:17:55.533Z,25.29
2023-05-07T12:18:55.491Z,25.29
2023-05-07T12:19:55.491Z,25.28
2023-05-07T12:20:55.488Z,25.27
2023-05-07T12:21:55.485Z,25.27
2023-05-07T12:22:55.469Z,25.25
2023-05-07T12:23:55.474Z,25.25
2023-05-07T12:24:55.547Z,25.25
2023-05-07T12:25:55.469Z,25.25
2023-05-07T12:26:55.495Z,25.23
2023-05-07T12:27:55.470Z,25.23
2023-05-07T12:28:55.480Z,25.24
2023-05-07T12:29:55.436Z,25.24
2023-05-07T12:30:55.432Z,25.25
2023-05-07T12:31:55.461Z,25.23
2023-05-07T12:32:55.490Z,25.23
2023-05-07T12:33:55.463Z,25.23
2023-05-07T12:34:55.408Z,25.23
2023-05-07T12:35:55.411Z,25.23
2023-05-07T12:36:55.414Z,25.25
2023-05-07T12:37:55.401Z,25.23
2023-05-07T12:38:55.402Z,25.25
2023-05-07T12:39:55.386Z,25.23
2023-05-07T12:40:55.402Z,25.23
2023-05-07T12:41:55.388Z,25.23
2023-05-07T12:42:55.389Z,25.23
2023-05-07T12:43:55.390Z,25.23
2023-05-07T12:44:55.398Z,25.24
2023-05-07T12:45:55.433Z,25.23
2023-05-07T12:46:55.434Z,25.24
2023-05-07T12:47:55.439Z,25.23
2023-05-07T12:48:55.384Z,25.24
2023-05-07T12:49:55.410Z,25.23
2023-05-07T12:50:55.382Z,25.23
2023-05-07T12:51:55.384Z,25.23
2023-05-07T12:52:55.371Z,25.23